sensor_id;sensor_type;location;lat;lon;timestamp;pressure;altitude;pressure_sealevel;temperature
24740;BMP280;45234;48.148;17.128;2024-01-30T00:01:47;102086.63;;;1.40
24740;BMP280;45234;48.148;17.128;2024-01-30T00:04:14;102076.72;;;1.34
24740;BMP280;45234;48.148;17.128;2024-01-30T00:06:43;102075.91;;;1.33
24740;BMP280;45234;48.148;17.128;2024-01-30T00:09:11;102073.22;;;1.35
24740;BMP280;45234;48.148;17.128;2024-01-30T00:11:38;102067.50;;;1.31
24740;BMP280;45234;48.148;17.128;2024-01-30T00:14:07;102063.38;;;1.29
24740;BMP280;45234;48.148;17.128;2024-01-30T00:16:34;102064.03;;;1.32
24740;BMP280;45234;48.148;17.128;2024-01-30T00:19:01;102070.94;;;1.30
24740;BMP280;45234;48.148;17.128;2024-01-30T00:21:29;102063.50;;;1.26
24740;BMP280;45234;48.148;17.128;2024-01-30T00:23:56;102069.59;;;1.23
24740;BMP280;45234;48.148;17.128;2024-01-30T00:26:22;102068.19;;;1.17
24740;BMP280;45234;48.148;17.128;2024-01-30T00:28:49;102071.25;;;1.24
24740;BMP280;45234;48.148;17.128;2024-01-30T00:31:16;102070.03;;;1.31
24740;BMP280;45234;48.148;17.128;2024-01-30T00:33:43;102060.66;;;1.32
24740;BMP280;45234;48.148;17.128;2024-01-30T00:36:10;102060.03;;;1.27
24740;BMP280;45234;48.148;17.128;2024-01-30T00:38:38;102066.28;;;1.21
24740;BMP280;45234;48.148;17.128;2024-01-30T00:41:04;102070.84;;;1.14
24740;BMP280;45234;48.148;17.128;2024-01-30T00:43:31;102069.94;;;1.15
24740;BMP280;45234;48.148;17.128;2024-01-30T00:45:59;102080.41;;;1.11
24740;BMP280;45234;48.148;17.128;2024-01-30T00:48:26;102077.09;;;1.09
24740;BMP280;45234;48.148;17.128;2024-01-30T00:50:53;102080.56;;;1.08
24740;BMP280;45234;48.148;17.128;2024-01-30T00:53:20;102077.22;;;1.06
24740;BMP280;45234;48.148;17.128;2024-01-30T00:55:47;102073.25;;;1.00
24740;BMP280;45234;48.148;17.128;2024-01-30T00:58:14;102072.19;;;1.04
24740;BMP280;45234;48.148;17.128;2024-01-30T01:00:41;102074.75;;;1.04
24740;BMP280;45234;48.148;17.128;2024-01-30T01:03:08;102068.81;;;1.04
24740;BMP280;45234;48.148;17.128;2024-01-30T01:05:35;102072.34;;;1.01
24740;BMP280;45234;48.148;17.128;2024-01-30T01:08:02;102059.59;;;1.01
24740;BMP280;45234;48.148;17.128;2024-01-30T01:10:29;102062.50;;;0.94
24740;BMP280;45234;48.148;17.128;2024-01-30T01:12:56;102063.31;;;0.94
24740;BMP280;45234;48.148;17.128;2024-01-30T01:15:24;102066.03;;;0.91
24740;BMP280;45234;48.148;17.128;2024-01-30T01:17:55;102061.28;;;0.83
24740;BMP280;45234;48.148;17.128;2024-01-30T01:20:22;102063.09;;;0.81
24740;BMP280;45234;48.148;17.128;2024-01-30T01:22:49;102064.06;;;0.79
24740;BMP280;45234;48.148;17.128;2024-01-30T01:25:16;102067.50;;;0.78
24740;BMP280;45234;48.148;17.128;2024-01-30T01:27:43;102068.34;;;0.78
24740;BMP280;45234;48.148;17.128;2024-01-30T01:30:18;102062.56;;;0.75
24740;BMP280;45234;48.148;17.128;2024-01-30T01:32:52;102064.34;;;0.73
24740;BMP280;45234;48.148;17.128;2024-01-30T01:35:24;102065.31;;;0.70
24740;BMP280;45234;48.148;17.128;2024-01-30T01:37:53;102068.50;;;0.75
24740;BMP280;45234;48.148;17.128;2024-01-30T01:40:25;102054.34;;;0.68
24740;BMP280;45234;48.148;17.128;2024-01-30T01:42:54;102063.72;;;0.68
24740;BMP280;45234;48.148;17.128;2024-01-30T01:45:21;102062.75;;;0.70
24740;BMP280;45234;48.148;17.128;2024-01-30T01:47:51;102061.09;;;0.69
24740;BMP280;45234;48.148;17.128;2024-01-30T01:50:20;102047.38;;;0.72
24740;BMP280;45234;48.148;17.128;2024-01-30T01:52:48;102056.00;;;0.69
24740;BMP280;45234;48.148;17.128;2024-01-30T01:55:16;102057.56;;;0.72
24740;BMP280;45234;48.148;17.128;2024-01-30T01:57:45;102051.66;;;0.71
24740;BMP280;45234;48.148;17.128;2024-01-30T02:00:13;102049.16;;;0.70
24740;BMP280;45234;48.148;17.128;2024-01-30T02:02:40;102046.84;;;0.65
24740;BMP280;45234;48.148;17.128;2024-01-30T02:05:08;102056.00;;;0.69
24740;BMP280;45234;48.148;17.128;2024-01-30T02:07:36;102057.44;;;0.75
24740;BMP280;45234;48.148;17.128;2024-01-30T02:10:03;102049.72;;;0.76
24740;BMP280;45234;48.148;17.128;2024-01-30T02:12:33;102059.78;;;0.79
24740;BMP280;45234;48.148;17.128;2024-01-30T02:15:00;102060.00;;;0.75
24740;BMP280;45234;48.148;17.128;2024-01-30T02:17:32;102055.66;;;0.77
24740;BMP280;45234;48.148;17.128;2024-01-30T02:19:59;102051.44;;;0.76
24740;BMP280;45234;48.148;17.128;2024-01-30T02:22:26;102055.56;;;0.78
24740;BMP280;45234;48.148;17.128;2024-01-30T02:24:53;102053.28;;;0.72
24740;BMP280;45234;48.148;17.128;2024-01-30T02:27:20;102051.38;;;0.77
24740;BMP280;45234;48.148;17.128;2024-01-30T02:29:47;102055.09;;;0.70
24740;BMP280;45234;48.148;17.128;2024-01-30T02:32:14;102048.50;;;0.66
24740;BMP280;45234;48.148;17.128;2024-01-30T02:34:41;102045.94;;;0.66
24740;BMP280;45234;48.148;17.128;2024-01-30T02:37:08;102052.91;;;0.63
24740;BMP280;45234;48.148;17.128;2024-01-30T02:39:35;102050.16;;;0.67
24740;BMP280;45234;48.148;17.128;2024-01-30T02:42:02;102052.06;;;0.62
24740;BMP280;45234;48.148;17.128;2024-01-30T02:44:29;102049.25;;;0.68
24740;BMP280;45234;48.148;17.128;2024-01-30T02:46:55;102046.84;;;0.65
24740;BMP280;45234;48.148;17.128;2024-01-30T02:49:23;102038.06;;;0.71
24740;BMP280;45234;48.148;17.128;2024-01-30T02:51:51;102039.13;;;0.67
24740;BMP280;45234;48.148;17.128;2024-01-30T02:54:18;102036.50;;;0.68
24740;BMP280;45234;48.148;17.128;2024-01-30T02:56:45;102035.50;;;0.71
24740;BMP280;45234;48.148;17.128;2024-01-30T02:59:12;102043.31;;;0.68
24740;BMP280;45234;48.148;17.128;2024-01-30T03:01:45;102033.19;;;0.66
24740;BMP280;45234;48.148;17.128;2024-01-30T03:04:13;102037.47;;;0.66
24740;BMP280;45234;48.148;17.128;2024-01-30T03:06:45;102037.97;;;0.72
24740;BMP280;45234;48.148;17.128;2024-01-30T03:09:16;102039.94;;;0.67
24740;BMP280;45234;48.148;17.128;2024-01-30T03:11:42;102038.28;;;0.66
24740;BMP280;45234;48.148;17.128;2024-01-30T03:14:09;102039.13;;;0.67
24740;BMP280;45234;48.148;17.128;2024-01-30T03:16:39;102029.88;;;0.64
24740;BMP280;45234;48.148;17.128;2024-01-30T03:19:07;102036.91;;;0.59
24740;BMP280;45234;48.148;17.128;2024-01-30T03:21:35;102032.47;;;0.63
24740;BMP280;45234;48.148;17.128;2024-01-30T03:24:02;102031.06;;;0.57
24740;BMP280;45234;48.148;17.128;2024-01-30T03:26:29;102039.53;;;0.57
24740;BMP280;45234;48.148;17.128;2024-01-30T03:28:56;102036.09;;;0.58
24740;BMP280;45234;48.148;17.128;2024-01-30T03:31:23;102031.13;;;0.55
24740;BMP280;45234;48.148;17.128;2024-01-30T03:33:51;102035.25;;;0.58
24740;BMP280;45234;48.148;17.128;2024-01-30T03:36:18;102026.69;;;0.59
24740;BMP280;45234;48.148;17.128;2024-01-30T03:38:45;102027.69;;;0.56
24740;BMP280;45234;48.148;17.128;2024-01-30T03:41:12;102024.44;;;0.53
24740;BMP280;45234;48.148;17.128;2024-01-30T03:43:39;102020.84;;;0.57
24740;BMP280;45234;48.148;17.128;2024-01-30T03:46:05;102021.00;;;0.54
24740;BMP280;45234;48.148;17.128;2024-01-30T03:48:32;102023.56;;;0.54
24740;BMP280;45234;48.148;17.128;2024-01-30T03:51:00;102026.84;;;0.56
24740;BMP280;45234;48.148;17.128;2024-01-30T03:53:27;102020.19;;;0.53
24740;BMP280;45234;48.148;17.128;2024-01-30T03:55:54;102035.53;;;0.52
24740;BMP280;45234;48.148;17.128;2024-01-30T03:58:21;102033.47;;;0.60
24740;BMP280;45234;48.148;17.128;2024-01-30T04:00:47;102031.97;;;0.56
24740;BMP280;45234;48.148;17.128;2024-01-30T04:03:17;102026.09;;;0.54
24740;BMP280;45234;48.148;17.128;2024-01-30T04:05:44;102037.88;;;0.56
24740;BMP280;45234;48.148;17.128;2024-01-30T04:08:11;102038.72;;;0.57
24740;BMP280;45234;48.148;17.128;2024-01-30T04:10:38;102036.75;;;0.62
24740;BMP280;45234;48.148;17.128;2024-01-30T04:13:05;102027.75;;;0.55
24740;BMP280;45234;48.148;17.128;2024-01-30T04:15:36;102024.22;;;0.57
24740;BMP280;45234;48.148;17.128;2024-01-30T04:18:03;102025.31;;;0.52
24740;BMP280;45234;48.148;17.128;2024-01-30T04:20:31;102033.22;;;0.47
24740;BMP280;45234;48.148;17.128;2024-01-30T04:22:58;102035.00;;;0.45
24740;BMP280;45234;48.148;17.128;2024-01-30T04:25:24;102029.09;;;0.45
24740;BMP280;45234;48.148;17.128;2024-01-30T04:27:51;102030.72;;;0.46
24740;BMP280;45234;48.148;17.128;2024-01-30T04:30:18;102029.19;;;0.42
24740;BMP280;45234;48.148;17.128;2024-01-30T04:32:45;102035.09;;;0.44
24740;BMP280;45234;48.148;17.128;2024-01-30T04:35:12;102034.84;;;0.48
24740;BMP280;45234;48.148;17.128;2024-01-30T04:37:39;102032.66;;;0.41
24740;BMP280;45234;48.148;17.128;2024-01-30T04:40:07;102032.81;;;0.38
24740;BMP280;45234;48.148;17.128;2024-01-30T04:42:35;102031.47;;;0.48
24740;BMP280;45234;48.148;17.128;2024-01-30T04:45:02;102034.09;;;0.46
24740;BMP280;45234;48.148;17.128;2024-01-30T04:47:30;102037.00;;;0.39
24740;BMP280;45234;48.148;17.128;2024-01-30T04:49:57;102040.75;;;0.32
24740;BMP280;45234;48.148;17.128;2024-01-30T04:52:24;102037.31;;;0.33
24740;BMP280;45234;48.148;17.128;2024-01-30T04:54:51;102029.34;;;0.39
24740;BMP280;45234;48.148;17.128;2024-01-30T04:57:18;102037.91;;;0.38
24740;BMP280;45234;48.148;17.128;2024-01-30T04:59:45;102035.28;;;0.39
24740;BMP280;45234;48.148;17.128;2024-01-30T05:02:12;102038.66;;;0.40
24740;BMP280;45234;48.148;17.128;2024-01-30T05:04:40;102041.22;;;0.40
24740;BMP280;45234;48.148;17.128;2024-01-30T05:07:07;102034.31;;;0.42
24740;BMP280;45234;48.148;17.128;2024-01-30T05:09:34;102033.47;;;0.41
24740;BMP280;45234;48.148;17.128;2024-01-30T05:12:01;102042.94;;;0.39
24740;BMP280;45234;48.148;17.128;2024-01-30T05:14:28;102027.69;;;0.38
24740;BMP280;45234;48.148;17.128;2024-01-30T05:16:55;102033.47;;;0.41
24740;BMP280;45234;48.148;17.128;2024-01-30T05:19:21;102040.47;;;0.38
24740;BMP280;45234;48.148;17.128;2024-01-30T05:21:50;102040.53;;;0.36
24740;BMP280;45234;48.148;17.128;2024-01-30T05:24:17;102034.31;;;0.42
24740;BMP280;45234;48.148;17.128;2024-01-30T05:26:47;102041.09;;;0.43
24740;BMP280;45234;48.148;17.128;2024-01-30T05:29:14;102050.38;;;0.44
24740;BMP280;45234;48.148;17.128;2024-01-30T05:31:41;102051.81;;;0.49
24740;BMP280;45234;48.148;17.128;2024-01-30T05:34:08;102046.03;;;0.46
24740;BMP280;45234;48.148;17.128;2024-01-30T05:36:36;102041.50;;;0.34
24740;BMP280;45234;48.148;17.128;2024-01-30T05:39:02;102046.47;;;0.37
24740;BMP280;45234;48.148;17.128;2024-01-30T05:41:32;102064.16;;;0.40
24740;BMP280;45234;48.148;17.128;2024-01-30T05:43:59;102053.34;;;0.35
24740;BMP280;45234;48.148;17.128;2024-01-30T05:46:26;102047.66;;;0.29
24740;BMP280;45234;48.148;17.128;2024-01-30T05:48:53;102061.00;;;0.35
24740;BMP280;45234;48.148;17.128;2024-01-30T05:51:20;102043.31;;;0.32
24740;BMP280;45234;48.148;17.128;2024-01-30T05:53:47;102045.78;;;0.33
24740;BMP280;45234;48.148;17.128;2024-01-30T05:56:13;102055.38;;;0.28
24740;BMP280;45234;48.148;17.128;2024-01-30T05:58:41;102058.91;;;0.25
24740;BMP280;45234;48.148;17.128;2024-01-30T06:01:10;102057.09;;;0.27
24740;BMP280;45234;48.148;17.128;2024-01-30T06:03:37;102065.50;;;0.29
24740;BMP280;45234;48.148;17.128;2024-01-30T06:06:05;102063.09;;;0.26
24740;BMP280;45234;48.148;17.128;2024-01-30T06:08:32;102068.06;;;0.29
24740;BMP280;45234;48.148;17.128;2024-01-30T06:11:00;102071.50;;;0.28
24740;BMP280;45234;48.148;17.128;2024-01-30T06:13:27;102077.22;;;0.34
24740;BMP280;45234;48.148;17.128;2024-01-30T06:15:54;102066.13;;;0.35
24740;BMP280;45234;48.148;17.128;2024-01-30T06:18:21;102071.72;;;0.43
24740;BMP280;45234;48.148;17.128;2024-01-30T06:20:48;102065.81;;;0.41
24740;BMP280;45234;48.148;17.128;2024-01-30T06:23:15;102067.00;;;0.34
24740;BMP280;45234;48.148;17.128;2024-01-30T06:25:42;102070.47;;;0.33
24740;BMP280;45234;48.148;17.128;2024-01-30T06:28:09;102073.91;;;0.32
24740;BMP280;45234;48.148;17.128;2024-01-30T06:30:36;102077.06;;;0.37
24740;BMP280;45234;48.148;17.128;2024-01-30T06:33:03;102082.72;;;0.43
24740;BMP280;45234;48.148;17.128;2024-01-30T06:35:30;102068.38;;;0.41
24740;BMP280;45234;48.148;17.128;2024-01-30T06:37:57;102076.91;;;0.40
24740;BMP280;45234;48.148;17.128;2024-01-30T06:40:23;102074.03;;;0.47
24740;BMP280;45234;48.148;17.128;2024-01-30T06:42:51;102080.09;;;0.45
24740;BMP280;45234;48.148;17.128;2024-01-30T06:45:18;102074.03;;;0.47
24740;BMP280;45234;48.148;17.128;2024-01-30T06:47:45;102078.16;;;0.50
24740;BMP280;45234;48.148;17.128;2024-01-30T06:50:12;102089.75;;;0.57
24740;BMP280;45234;48.148;17.128;2024-01-30T06:52:39;102082.69;;;0.62
24740;BMP280;45234;48.148;17.128;2024-01-30T06:55:06;102080.78;;;0.67
24740;BMP280;45234;48.148;17.128;2024-01-30T06:57:34;102081.03;;;0.80
24740;BMP280;45234;48.148;17.128;2024-01-30T07:00:00;102081.13;;;0.96
24740;BMP280;45234;48.148;17.128;2024-01-30T07:02:30;102078.09;;;1.06
24740;BMP280;45234;48.148;17.128;2024-01-30T07:04:57;102089.56;;;1.32
24740;BMP280;45234;48.148;17.128;2024-01-30T07:07:24;102086.31;;;1.46
24740;BMP280;45234;48.148;17.128;2024-01-30T07:09:52;102078.72;;;1.62
24740;BMP280;45234;48.148;17.128;2024-01-30T07:12:24;102087.78;;;1.85
24740;BMP280;45234;48.148;17.128;2024-01-30T07:14:53;102094.22;;;1.92
24740;BMP280;45234;48.148;17.128;2024-01-30T07:17:20;102087.47;;;2.06
24740;BMP280;45234;48.148;17.128;2024-01-30T07:19:47;102078.78;;;2.09
24740;BMP280;45234;48.148;17.128;2024-01-30T07:22:14;102083.03;;;2.26
24740;BMP280;45234;48.148;17.128;2024-01-30T07:24:44;102083.34;;;2.35
24740;BMP280;45234;48.148;17.128;2024-01-30T07:27:16;102091.94;;;2.50
24740;BMP280;45234;48.148;17.128;2024-01-30T07:29:45;102086.06;;;2.48
24740;BMP280;45234;48.148;17.128;2024-01-30T07:32:12;102085.00;;;2.36
24740;BMP280;45234;48.148;17.128;2024-01-30T07:34:39;102090.59;;;2.43
24740;BMP280;45234;48.148;17.128;2024-01-30T07:37:19;102084.34;;;2.49
24740;BMP280;45234;48.148;17.128;2024-01-30T07:39:46;102088.06;;;2.59
24740;BMP280;45234;48.148;17.128;2024-01-30T07:42:13;102092.97;;;2.78
24740;BMP280;45234;48.148;17.128;2024-01-30T07:44:40;102090.03;;;3.00
24740;BMP280;45234;48.148;17.128;2024-01-30T07:47:07;102088.81;;;3.21
24740;BMP280;45234;48.148;17.128;2024-01-30T07:49:35;102089.72;;;3.34
24740;BMP280;45234;48.148;17.128;2024-01-30T07:52:05;102081.22;;;3.34
24740;BMP280;45234;48.148;17.128;2024-01-30T07:54:33;102074.81;;;3.41
24740;BMP280;45234;48.148;17.128;2024-01-30T07:57:01;102079.22;;;3.53
24740;BMP280;45234;48.148;17.128;2024-01-30T07:59:28;102081.03;;;3.51
24740;BMP280;45234;48.148;17.128;2024-01-30T08:01:55;102082.25;;;3.45
24740;BMP280;45234;48.148;17.128;2024-01-30T08:04:22;102091.03;;;3.55
24740;BMP280;45234;48.148;17.128;2024-01-30T08:06:49;102088.38;;;3.71
24740;BMP280;45234;48.148;17.128;2024-01-30T08:09:16;102087.19;;;3.63
24740;BMP280;45234;48.148;17.128;2024-01-30T08:11:43;102087.06;;;3.78
24740;BMP280;45234;48.148;17.128;2024-01-30T08:14:10;102095.09;;;4.01
24740;BMP280;45234;48.148;17.128;2024-01-30T08:16:37;102094.81;;;4.19
24740;BMP280;45234;48.148;17.128;2024-01-30T08:19:04;102090.19;;;4.25
24740;BMP280;45234;48.148;17.128;2024-01-30T08:21:31;102094.50;;;4.24
24740;BMP280;45234;48.148;17.128;2024-01-30T08:24:06;102097.91;;;4.25
24740;BMP280;45234;48.148;17.128;2024-01-30T08:26:33;102096.53;;;4.33
24740;BMP280;45234;48.148;17.128;2024-01-30T08:29:01;102095.72;;;4.45
24740;BMP280;45234;48.148;17.128;2024-01-30T08:31:28;102091.72;;;4.68
24740;BMP280;45234;48.148;17.128;2024-01-30T08:33:55;102091.06;;;4.65
24740;BMP280;45234;48.148;17.128;2024-01-30T08:36:23;102090.06;;;4.40
24740;BMP280;45234;48.148;17.128;2024-01-30T08:38:50;102087.72;;;4.37
24740;BMP280;45234;48.148;17.128;2024-01-30T08:41:19;102085.09;;;4.52
24740;BMP280;45234;48.148;17.128;2024-01-30T08:43:46;102086.66;;;4.67
24740;BMP280;45234;48.148;17.128;2024-01-30T08:46:16;102084.53;;;4.73
24740;BMP280;45234;48.148;17.128;2024-01-30T08:48:43;102080.06;;;4.90
24740;BMP280;45234;48.148;17.128;2024-01-30T08:51:12;102080.47;;;5.09
24740;BMP280;45234;48.148;17.128;2024-01-30T08:53:39;102084.59;;;5.24
24740;BMP280;45234;48.148;17.128;2024-01-30T08:56:07;102074.19;;;5.38
24740;BMP280;45234;48.148;17.128;2024-01-30T08:58:34;102070.78;;;5.38
24740;BMP280;45234;48.148;17.128;2024-01-30T09:01:01;102080.34;;;5.36
24740;BMP280;45234;48.148;17.128;2024-01-30T09:03:30;102069.44;;;5.20
24740;BMP280;45234;48.148;17.128;2024-01-30T09:05:57;102070.38;;;4.93
24740;BMP280;45234;48.148;17.128;2024-01-30T09:08:24;102078.56;;;4.86
24740;BMP280;45234;48.148;17.128;2024-01-30T09:10:51;102078.56;;;4.73
24740;BMP280;45234;48.148;17.128;2024-01-30T09:13:18;102074.56;;;4.69
24740;BMP280;45234;48.148;17.128;2024-01-30T09:15:46;102079.28;;;4.35
24740;BMP280;45234;48.148;17.128;2024-01-30T09:18:13;102077.91;;;4.30
24740;BMP280;45234;48.148;17.128;2024-01-30T09:20:40;102084.59;;;4.32
24740;BMP280;45234;48.148;17.128;2024-01-30T09:23:07;102082.28;;;4.15
24740;BMP280;45234;48.148;17.128;2024-01-30T09:25:34;102086.66;;;4.13
24740;BMP280;45234;48.148;17.128;2024-01-30T09:28:02;102083.56;;;4.08
24740;BMP280;45234;48.148;17.128;2024-01-30T09:30:29;102089.22;;;4.13
24740;BMP280;45234;48.148;17.128;2024-01-30T09:32:56;102081.53;;;4.13
24740;BMP280;45234;48.148;17.128;2024-01-30T09:35:23;102086.50;;;4.16
24740;BMP280;45234;48.148;17.128;2024-01-30T09:37:49;102079.97;;;4.10
24740;BMP280;45234;48.148;17.128;2024-01-30T09:40:18;102078.97;;;4.13
24740;BMP280;45234;48.148;17.128;2024-01-30T09:42:47;102076.09;;;4.17
24740;BMP280;45234;48.148;17.128;2024-01-30T09:45:23;102074.38;;;4.18
24740;BMP280;45234;48.148;17.128;2024-01-30T09:47:51;102076.94;;;4.18
24740;BMP280;45234;48.148;17.128;2024-01-30T09:50:19;102070.28;;;4.15
24740;BMP280;45234;48.148;17.128;2024-01-30T09:52:47;102067.78;;;4.14
24740;BMP280;45234;48.148;17.128;2024-01-30T09:55:14;102078.28;;;4.24
24740;BMP280;45234;48.148;17.128;2024-01-30T09:57:42;102065.19;;;4.28
24740;BMP280;45234;48.148;17.128;2024-01-30T10:00:10;102066.94;;;4.40
24740;BMP280;45234;48.148;17.128;2024-01-30T10:02:40;102074.81;;;4.52
24740;BMP280;45234;48.148;17.128;2024-01-30T10:05:08;102064.34;;;4.55
24740;BMP280;45234;48.148;17.128;2024-01-30T10:07:36;102064.44;;;4.66
24740;BMP280;45234;48.148;17.128;2024-01-30T10:10:05;102066.66;;;4.72
24740;BMP280;45234;48.148;17.128;2024-01-30T10:12:32;102063.38;;;4.83
24740;BMP280;45234;48.148;17.128;2024-01-30T10:14:59;102046.72;;;4.88
24740;BMP280;45234;48.148;17.128;2024-01-30T10:17:29;102053.69;;;4.99
24740;BMP280;45234;48.148;17.128;2024-01-30T10:20:00;102050.94;;;5.15
24740;BMP280;45234;48.148;17.128;2024-01-30T10:22:31;102038.31;;;5.24
24740;BMP280;45234;48.148;17.128;2024-01-30T10:24:59;102031.72;;;5.33
24740;BMP280;45234;48.148;17.128;2024-01-30T10:27:31;102038.72;;;5.05
24740;BMP280;45234;48.148;17.128;2024-01-30T10:29:58;102029.63;;;5.38
24740;BMP280;45234;48.148;17.128;2024-01-30T10:32:26;102032.06;;;5.52
24740;BMP280;45234;48.148;17.128;2024-01-30T10:34:53;102017.44;;;5.65
24740;BMP280;45234;48.148;17.128;2024-01-30T10:37:22;102015.56;;;5.67
24740;BMP280;45234;48.148;17.128;2024-01-30T10:39:53;102017.09;;;5.70
24740;BMP280;45234;48.148;17.128;2024-01-30T10:42:26;102013.72;;;5.69
24740;BMP280;45234;48.148;17.128;2024-01-30T10:45:10;102001.28;;;5.63
24740;BMP280;45234;48.148;17.128;2024-01-30T10:47:52;101998.50;;;5.66
24740;BMP280;45234;48.148;17.128;2024-01-30T10:50:21;101998.53;;;5.78
24740;BMP280;45234;48.148;17.128;2024-01-30T10:52:51;101996.78;;;5.78
24740;BMP280;45234;48.148;17.128;2024-01-30T10:55:19;102002.44;;;5.83
24740;BMP280;45234;48.148;17.128;2024-01-30T10:57:48;101990.53;;;5.93
24740;BMP280;45234;48.148;17.128;2024-01-30T11:00:16;101984.38;;;5.96
24740;BMP280;45234;48.148;17.128;2024-01-30T11:02:45;101981.28;;;5.91
24740;BMP280;45234;48.148;17.128;2024-01-30T11:05:13;101971.69;;;5.93
24740;BMP280;45234;48.148;17.128;2024-01-30T11:07:42;101980.06;;;5.96
24740;BMP280;45234;48.148;17.128;2024-01-30T11:10:11;101979.94;;;5.98
24740;BMP280;45234;48.148;17.128;2024-01-30T11:12:45;101978.78;;;6.02
24740;BMP280;45234;48.148;17.128;2024-01-30T11:15:14;101975.50;;;6.00
24740;BMP280;45234;48.148;17.128;2024-01-30T11:17:51;101971.28;;;5.99
24740;BMP280;45234;48.148;17.128;2024-01-30T11:20:30;101971.53;;;6.07
24740;BMP280;45234;48.148;17.128;2024-01-30T11:23:03;101972.72;;;6.14
24740;BMP280;45234;48.148;17.128;2024-01-30T11:25:33;101965.00;;;6.14
24740;BMP280;45234;48.148;17.128;2024-01-30T11:28:01;101969.22;;;6.15
24740;BMP280;45234;48.148;17.128;2024-01-30T11:30:29;101955.41;;;6.16
24740;BMP280;45234;48.148;17.128;2024-01-30T11:35:36;101962.16;;;6.30
24740;BMP280;45234;48.148;17.128;2024-01-30T11:38:04;101955.25;;;6.30
24740;BMP280;45234;48.148;17.128;2024-01-30T11:40:32;101955.47;;;6.39
24740;BMP280;45234;48.148;17.128;2024-01-30T11:43:02;101953.63;;;6.41
24740;BMP280;45234;48.148;17.128;2024-01-30T11:45:29;101943.63;;;6.36
24740;BMP280;45234;48.148;17.128;2024-01-30T11:47:57;101938.38;;;6.38
24740;BMP280;45234;48.148;17.128;2024-01-30T11:50:25;101945.66;;;6.44
24740;BMP280;45234;48.148;17.128;2024-01-30T11:52:54;101939.69;;;6.43
24740;BMP280;45234;48.148;17.128;2024-01-30T11:55:21;101927.16;;;6.50
24740;BMP280;45234;48.148;17.128;2024-01-30T11:57:48;101923.84;;;6.48
24740;BMP280;45234;48.148;17.128;2024-01-30T12:00:19;101920.38;;;6.49
24740;BMP280;45234;48.148;17.128;2024-01-30T12:02:52;101910.28;;;6.57
24740;BMP280;45234;48.148;17.128;2024-01-30T12:05:23;101920.59;;;6.68
24740;BMP280;45234;48.148;17.128;2024-01-30T12:07:50;101916.59;;;6.75
24740;BMP280;45234;48.148;17.128;2024-01-30T12:10:18;101906.69;;;6.71
24740;BMP280;45234;48.148;17.128;2024-01-30T12:12:47;101910.41;;;6.78
24740;BMP280;45234;48.148;17.128;2024-01-30T12:15:16;101898.81;;;6.72
24740;BMP280;45234;48.148;17.128;2024-01-30T12:17:43;101897.19;;;6.71
24740;BMP280;45234;48.148;17.128;2024-01-30T12:20:12;101904.19;;;6.69
24740;BMP280;45234;48.148;17.128;2024-01-30T12:22:41;101896.00;;;6.75
24740;BMP280;45234;48.148;17.128;2024-01-30T12:25:13;101900.91;;;6.78
24740;BMP280;45234;48.148;17.128;2024-01-30T12:27:43;101895.41;;;6.72
24740;BMP280;45234;48.148;17.128;2024-01-30T12:30:12;101895.16;;;6.75
24740;BMP280;45234;48.148;17.128;2024-01-30T12:32:44;101892.34;;;6.78
24740;BMP280;45234;48.148;17.128;2024-01-30T12:35:18;101883.59;;;6.80
24740;BMP280;45234;48.148;17.128;2024-01-30T12:37:47;101894.22;;;6.76
24740;BMP280;45234;48.148;17.128;2024-01-30T12:40:15;101890.59;;;6.78
24740;BMP280;45234;48.148;17.128;2024-01-30T12:42:47;101879.34;;;6.79
24740;BMP280;45234;48.148;17.128;2024-01-30T12:45:17;101883.09;;;6.86
24740;BMP280;45234;48.148;17.128;2024-01-30T12:47:49;101879.44;;;6.89
24740;BMP280;45234;48.148;17.128;2024-01-30T12:50:17;101884.97;;;6.95
24740;BMP280;45234;48.148;17.128;2024-01-30T12:52:46;101880.38;;;6.99
24740;BMP280;45234;48.148;17.128;2024-01-30T12:55:16;101876.97;;;6.98
24740;BMP280;45234;48.148;17.128;2024-01-30T12:57:43;101877.34;;;7.05
24740;BMP280;45234;48.148;17.128;2024-01-30T13:00:11;101874.22;;;7.11
24740;BMP280;45234;48.148;17.128;2024-01-30T13:02:39;101874.72;;;7.16
24740;BMP280;45234;48.148;17.128;2024-01-30T13:05:06;101872.00;;;7.18
24740;BMP280;45234;48.148;17.128;2024-01-30T13:07:34;101878.81;;;7.19
24740;BMP280;45234;48.148;17.128;2024-01-30T13:10:03;101870.94;;;7.20
24740;BMP280;45234;48.148;17.128;2024-01-30T13:12:32;101873.66;;;7.19
24740;BMP280;45234;48.148;17.128;2024-01-30T13:15:01;101872.22;;;7.26
24740;BMP280;45234;48.148;17.128;2024-01-30T13:17:33;101871.28;;;7.27
24740;BMP280;45234;48.148;17.128;2024-01-30T13:20:00;101865.19;;;7.28
24740;BMP280;45234;48.148;17.128;2024-01-30T13:22:37;101869.78;;;7.24
24740;BMP280;45234;48.148;17.128;2024-01-30T13:25:06;101864.72;;;7.23
24740;BMP280;45234;48.148;17.128;2024-01-30T13:27:34;101873.84;;;7.27
24740;BMP280;45234;48.148;17.128;2024-01-30T13:30:01;101872.09;;;7.27
24740;BMP280;45234;48.148;17.128;2024-01-30T13:32:30;101865.66;;;7.33
24740;BMP280;45234;48.148;17.128;2024-01-30T13:34:57;101860.50;;;7.33
24740;BMP280;45234;48.148;17.128;2024-01-30T13:37:24;101862.59;;;7.28
24740;BMP280;45234;48.148;17.128;2024-01-30T13:39:51;101860.97;;;7.27
24740;BMP280;45234;48.148;17.128;2024-01-30T13:42:18;101864.81;;;7.32
24740;BMP280;45234;48.148;17.128;2024-01-30T13:44:45;101863.28;;;7.30
24740;BMP280;45234;48.148;17.128;2024-01-30T13:47:12;101858.25;;;7.28
24740;BMP280;45234;48.148;17.128;2024-01-30T13:49:39;101861.16;;;7.35
24740;BMP280;45234;48.148;17.128;2024-01-30T13:52:06;101855.63;;;7.40
24740;BMP280;45234;48.148;17.128;2024-01-30T13:54:33;101863.75;;;7.35
24740;BMP280;45234;48.148;17.128;2024-01-30T13:57:00;101858.34;;;7.38
24740;BMP280;45234;48.148;17.128;2024-01-30T13:59:27;101864.44;;;7.37
24740;BMP280;45234;48.148;17.128;2024-01-30T14:01:54;101853.66;;;7.32
24740;BMP280;45234;48.148;17.128;2024-01-30T14:04:21;101852.03;;;7.31